Latest Weather Observations for Butlers Gorge

IDT60801

Issued at 12:31 am EDT Sunday 21 December 2014 (issued every 30 minutes, with the page automatically refreshed every 10 minutes)

About weather observations | Map of weather stations | Latest weather observations for TAS | Other Formats
Station Details ID: 096003 Name: BUTLERS GORGE Lat: -42.28 Lon: 146.28 Height: 667.0 m
Data from the previous 72 hours. | See also: Recent months at Butlers Gorge
Date/Time
EDT
Temp
°C
App
Temp
°C
Dew
Point
Rel
Hum
%
Delta-T
°C
Wind Press
QNH
hPa
Press
MSL
hPa
Rain
since 9 am
mm
Dir
 
Spd
km/h
Gust
km/h
Spd
kts
Gust
kts
21/12:30am 3.1 1.5 2.4 95 0.3 CALM 0 0 0 0 - - 0.6
21/12:00am 3.8 2.3 2.9 94 0.4 CALM 0 0 0 0 - - 0.6
 
Date/Time
EDT
Temp
°C
App
Temp
°C
Dew
Point
Rel
Hum
%
Delta-T
°C
Wind Press
QNH
hPa
Press
MSL
hPa
Rain
since 9 am
mm
Dir
 
Spd
km/h
Gust
km/h
Spd
kts
Gust
kts
20/11:30pm 4.2 2.7 3.2 93 0.4 CALM 0 0 0 0 - - 0.6
20/11:00pm 5.1 3.8 3.9 92 0.5 CALM 0 0 0 0 - - 0.6
20/10:30pm 6.1 4.2 4.7 91 0.6 WSW 4 7 2 4 - - 0.6
20/10:00pm 6.6 5.5 5.2 91 0.6 CALM 0 0 0 0 - - 0.6
20/09:30pm 7.4 6.4 5.5 88 0.9 CALM 0 0 0 0 - - 0.6
20/09:00pm 8.6 6.5 5.9 83 1.3 WSW 6 7 3 4 - - 0.6
20/08:30pm 10.2 8.4 5.4 72 2.3 SW 4 9 2 5 - - 0.6
20/08:00pm 11.5 8.6 4.5 62 3.3 SW 9 17 5 9 - - 0.6
20/07:30pm 11.9 9.0 4.9 62 3.3 SW 9 17 5 9 - - 0.6
20/07:00pm 12.5 10.6 5.0 60 3.6 WSW 4 9 2 5 - - 0.6
20/06:30pm 12.6 9.8 5.3 61 3.5 SW 9 17 5 9 - - 0.6
20/06:00pm 12.8 9.2 5.2 60 3.7 SW 13 28 7 15 - - 0.6
20/05:30pm 13.2 9.1 6.1 62 3.5 SSW 17 24 9 13 - - 0.6
20/05:00pm 13.4 9.0 4.8 56 4.1 SW 17 26 9 14 - - 0.6
20/04:30pm 14.7 11.4 6.3 57 4.2 SW 13 26 7 14 - - 0.6
20/04:00pm 13.6 9.6 5.0 56 4.2 WSW 15 28 8 15 - - 0.6
20/03:30pm 13.0 10.3 7.2 68 2.9 SW 11 26 6 14 - - 0.6
20/03:00pm 12.8 10.1 9.1 78 1.9 SW 13 22 7 12 - - 0.6
20/02:30pm 13.5 10.3 8.6 72 2.5 SW 15 26 8 14 - - 0.4
20/02:00pm 13.3 10.7 9.2 76 2.2 SW 13 22 7 12 - - 0.4
20/01:30pm 12.3 9.3 7.8 74 2.3 WSW 13 22 7 12 - - 0.4
20/01:00pm 13.5 10.7 8.4 71 2.6 W 13 24 7 13 - - 0.2
20/12:30pm 13.6 10.5 7.2 65 3.2 W 13 20 7 11 - - 0.2
20/12:00pm 13.7 10.3 9.0 73 2.5 WNW 17 30 9 16 - - 0.2
20/11:30am 11.9 8.7 8.6 80 1.7 SW 15 26 8 14 - - 0.2
20/11:00am 12.6 9.0 8.3 75 2.2 WSW 17 28 9 15 - - 0.2
20/10:30am 13.0 8.9 7.7 70 2.7 WSW 19 26 10 14 - - 0.0
20/10:00am 12.8 9.1 8.1 73 2.4 WSW 17 30 9 16 - - 0.0
20/09:30am 12.3 9.3 7.8 74 2.3 WSW 13 22 7 12 - - 0.0
20/09:00am 11.4 9.4 8.8 84 1.3 WNW 9 17 5 9 - - 3.6
20/08:30am 11.6 9.9 9.7 88 1.0 W 9 17 5 9 - - 3.6
20/08:00am 10.9 9.4 9.3 90 0.8 W 7 15 4 8 - - 3.6
20/07:30am 10.8 9.0 9.4 91 0.7 W 9 15 5 8 - - 3.2
20/07:00am 10.4 8.5 9.2 92 0.6 W 9 15 5 8 - - 2.8
20/06:30am 10.1 8.5 8.9 92 0.6 W 7 13 4 7 - - 2.6
20/06:00am 9.8 8.2 8.7 93 0.6 W 7 15 4 8 - - 2.4
20/05:30am 9.6 7.9 8.4 92 0.6 WNW 7 15 4 8 - - 2.2
20/05:00am 9.4 7.7 8.2 92 0.6 WNW 7 15 4 8 - - 2.0
20/04:30am 9.1 7.3 7.9 92 0.6 NW 7 11 4 6 - - 1.6
20/04:00am 9.0 6.7 7.6 91 0.7 NW 9 17 5 9 - - 1.2
20/03:30am 8.8 6.5 7.3 90 0.7 NW 9 17 5 9 - - 1.0
20/03:00am 8.7 6.4 7.5 92 0.6 WNW 9 15 5 8 - - 0.6
20/02:30am 8.7 6.3 7.2 90 0.7 WNW 9 22 5 12 - - 0.4
20/02:00am 8.5 6.1 6.8 89 0.8 W 9 15 5 8 - - 0.4
20/01:30am 8.3 5.0 6.4 88 0.9 WNW 13 22 7 12 - - 0.4
20/01:00am 8.3 4.9 5.9 85 1.1 WNW 13 26 7 14 - - 0.4
20/12:30am 7.9 4.5 5.7 86 1.0 W 13 24 7 13 - - 0.4
20/12:00am 7.7 4.6 5.7 87 0.9 W 11 22 6 12 - - 0.4
 
Date/Time
EDT
Temp
°C
App
Temp
°C
Dew
Point
Rel
Hum
%
Delta-T
°C
Wind Press
QNH
hPa
Press
MSL
hPa
Rain
since 9 am
mm
Dir
 
Spd
km/h
Gust
km/h
Spd
kts
Gust
kts
19/11:30pm 7.6 4.4 5.2 85 1.1 W 11 24 6 13 - - 0.4
19/11:00pm 7.5 4.4 5.5 87 0.9 W 11 20 6 11 - - 0.4
19/10:30pm 7.4 4.6 5.0 85 1.1 W 9 17 5 9 - - 0.4
19/10:00pm 7.3 4.4 4.6 83 1.2 W 9 15 5 8 - - 0.4
19/09:30pm 7.4 4.0 4.2 80 1.4 WNW 11 19 6 10 - - 0.4
19/09:00pm 7.5 4.1 3.9 78 1.6 NW 11 24 6 13 - - 0.4
19/08:30pm 7.7 5.5 3.6 75 1.8 WSW 4 15 2 8 - - 0.4
19/08:00pm 8.0 4.9 3.5 73 2.0 WNW 9 17 5 9 - - 0.4
19/07:30pm 8.5 5.7 3.1 69 2.4 WSW 7 15 4 8 - - 0.4
19/07:00pm 8.8 5.6 2.8 66 2.7 WSW 9 13 5 7 - - 0.4
19/06:30pm 9.0 6.5 4.0 71 2.3 ENE 6 9 3 5 - - 0.4
19/06:00pm 9.6 6.8 3.4 65 2.8 W 7 15 4 8 - - 0.4
19/05:30pm 9.4 5.9 3.6 67 2.6 W 11 22 6 12 - - 0.4
19/05:00pm 9.6 5.8 1.8 58 3.4 WSW 11 28 6 15 - - 0.4
19/04:30pm 10.4 7.0 2.0 56 3.7 W 9 15 5 8 - - 0.4
19/04:00pm 10.5 6.5 0.8 51 4.2 NW 11 22 6 12 - - 0.4
19/03:30pm 10.8 5.8 1.4 52 4.1 NW 17 28 9 15 - - 0.4
19/03:00pm 11.0 6.4 1.8 53 4.1 WNW 15 28 8 15 - - 0.4
19/02:30pm 11.9 7.6 1.0 47 4.8 NW 13 24 7 13 - - 0.4
19/02:00pm 10.3 5.8 2.4 58 3.5 W 15 35 8 19 - - 0.4
19/01:30pm 11.3 7.2 4.3 62 3.3 SW 15 24 8 13 - - 0.4
19/01:00pm 10.1 6.4 4.7 69 2.5 SW 13 30 7 16 - - 0.4
19/12:30pm 9.2 4.9 3.4 67 2.6 NW 15 24 8 13 - - 0.4
19/12:00pm 9.0 4.6 2.8 65 2.7 WSW 15 32 8 17 - - 0.4
19/11:30am 8.0 4.6 4.0 76 1.8 W 11 20 6 11 - - 0.4
19/11:00am 8.0 4.0 3.1 71 2.2 W 13 28 7 15 - - 0.2
19/10:30am 8.4 4.7 4.2 75 1.9 WSW 13 20 7 11 - - 0.2
19/10:00am 7.3 4.1 3.0 74 1.9 WSW 9 17 5 9 - - 0.2
19/09:30am 7.1 2.9 1.8 69 2.3 WSW 13 20 7 11 - - 0.0
19/09:00am 6.5 2.8 2.6 76 1.7 W 11 20 6 11 - - 6.2
19/08:30am 6.6 2.6 2.7 76 1.7 SW 13 24 7 13 - - 6.2
19/08:00am 6.7 3.1 2.8 76 1.7 SW 11 19 6 10 - - 6.2
19/07:30am 6.3 3.1 2.9 79 1.5 SW 9 17 5 9 - - 6.2
19/07:00am 5.7 3.9 3.7 87 0.9 W 2 7 1 4 - - 6.2
19/06:30am 5.0 3.7 4.1 94 0.4 CALM 0 0 0 0 - - 6.0
19/06:00am 4.6 3.2 3.7 94 0.4 CALM 0 0 0 0 - - 6.0
19/05:30am 4.6 3.2 3.7 94 0.4 CALM 0 0 0 0 - - 6.0
19/05:00am 4.7 3.3 3.5 92 0.5 CALM 0 0 0 0 - - 5.8
19/04:30am 4.5 1.9 3.0 90 0.6 NNW 6 9 3 5 - - 5.6
19/04:00am 4.8 2.6 3.6 92 0.5 SW 4 13 2 7 - - 5.6
19/03:30am 4.8 2.6 3.1 89 0.7 NNW 4 9 2 5 - - 5.2
19/03:00am 5.6 3.0 3.3 85 1.0 W 6 13 3 7 - - 5.2
19/02:30am 5.8 2.9 2.8 81 1.3 WNW 7 11 4 6 - - 5.0
19/02:00am 5.7 3.5 3.4 85 1.0 W 4 7 2 4 - - 5.0
19/01:30am 5.6 3.9 3.9 89 0.7 WNW 2 7 1 4 - - 4.8
19/01:00am 5.5 3.7 3.3 86 1.0 WNW 2 7 1 4 - - 4.8
19/12:30am 5.5 3.8 4.0 90 0.7 WSW 2 11 1 6 - - 4.8
19/12:00am 5.7 2.6 3.4 85 1.0 WNW 9 17 5 9 - - 4.8
 
Date/Time
EDT
Temp
°C
App
Temp
°C
Dew
Point
Rel
Hum
%
Delta-T
°C
Wind Press
QNH
hPa
Press
MSL
hPa
Rain
since 9 am
mm
Dir
 
Spd
km/h
Gust
km/h
Spd
kts
Gust
kts
18/11:30pm 6.9 4.1 3.2 77 1.6 W 7 17 4 9 - - 4.0
18/11:00pm 7.0 3.0 3.1 76 1.7 W 13 22 7 12 - - 4.0
18/10:30pm 6.6 3.4 3.0 78 1.6 WSW 9 15 5 8 - - 4.0
18/10:00pm 6.3 3.6 2.8 78 1.5 W 6 11 3 6 - - 4.0
18/09:30pm 6.6 3.4 3.0 78 1.6 W 9 20 5 11 - - 4.0
18/09:00pm 6.9 3.8 3.7 80 1.4 WSW 9 20 5 11 - - 4.0
18/08:30pm 7.3 3.9 4.1 80 1.4 WSW 11 20 6 11 - - 4.0
18/08:00pm 7.6 4.4 5.1 84 1.2 W 11 20 6 11 - - 4.0
18/07:30pm 7.9 4.3 4.8 81 1.4 SW 13 22 7 12 - - 3.8
18/07:00pm 8.1 5.0 5.4 83 1.3 WSW 11 19 6 10 - - 3.8
18/06:30pm 8.6 5.5 5.7 82 1.4 WNW 11 24 6 13 - - 2.6
18/06:00pm 10.6 6.5 6.0 73 2.2 NW 17 37 9 20 - - 2.6
18/05:30pm 9.5 6.5 5.9 78 1.7 WNW 11 20 6 11 - - 2.6
18/05:00pm 9.4 6.0 6.1 80 1.6 WNW 13 20 7 11 - - 2.4
18/04:30pm 9.5 7.0 6.4 81 1.5 WNW 9 24 5 13 - - 2.4
18/04:00pm 8.8 5.2 5.2 78 1.7 WNW 13 30 7 16 - - 2.4
18/03:30pm 8.6 4.9 4.4 75 1.9 WNW 13 28 7 15 - - 2.4
18/03:00pm 8.2 3.8 4.6 78 1.7 WNW 17 30 9 16 - - 2.0
18/02:30pm 8.5 4.4 6.0 84 1.2 WSW 17 32 9 17 - - 2.0
18/02:00pm 11.3 8.1 7.0 75 2.1 NW 13 26 7 14 - - 0.4
18/01:30pm 12.4 7.8 5.6 63 3.3 N 19 35 10 19 - - 0.0
18/01:00pm 13.5 10.5 5.9 60 3.7 NNW 11 19 6 10 - - 0.0
18/12:30pm 12.8 8.0 5.5 61 3.5 N 20 33 11 18 - - 0.0
18/12:00pm 13.3 8.5 4.7 56 4.1 NNW 19 39 10 21 - - 0.0
18/11:30am 13.8 9.0 4.9 55 4.3 N 19 30 10 16 - - 0.0
18/11:00am 13.3 9.3 5.0 57 4.0 N 15 32 8 17 - - 0.0
18/10:30am 12.0 8.3 4.5 60 3.5 N 13 28 7 15 - - 0.0
18/10:00am 11.6 8.3 4.3 61 3.4 NNW 11 20 6 11 - - 0.0
18/09:30am 11.9 8.7 4.9 62 3.3 NNW 11 20 6 11 - - 0.0
18/09:00am 11.9 7.8 4.4 60 3.5 NW 15 33 8 18 - - 1.0
18/08:30am 11.5 8.2 4.5 62 3.3 N 11 19 6 10 - - 1.0
18/08:00am 11.2 8.0 4.9 65 3.0 N 11 19 6 10 - - 1.0
18/07:30am 8.6 5.9 3.8 72 2.2 NNW 7 11 4 6 - - 1.0
18/07:00am 6.7 3.8 4.5 86 1.0 N 9 15 5 8 - - 1.0
18/06:30am 2.7 1.0 2.1 96 0.2 CALM 0 0 0 0 - - 1.0
18/06:00am 3.0 1.1 2.6 97 0.2 ESE 2 9 1 5 - - 1.0
18/05:30am 2.8 1.2 2.4 97 0.2 CALM 0 7 0 4 - - 1.0
18/05:00am 1.5 -0.3 0.9 96 0.2 CALM 0 0 0 0 - - 1.0
18/04:30am 0.8 -1.2 0.2 96 0.2 CALM 0 0 0 0 - - 1.0
18/04:00am 0.9 -1.0 0.3 96 0.2 CALM 0 0 0 0 - - 1.0
18/03:30am 0.9 -1.0 0.3 96 0.2 CALM 0 0 0 0 - - 1.0
18/03:00am 1.2 -0.7 0.5 95 0.3 CALM 0 9 0 5 - - 1.0
18/02:30am 1.9 0.1 1.3 96 0.2 CALM 0 0 0 0 - - 1.0
18/02:00am 1.5 -0.4 0.8 95 0.3 CALM 0 0 0 0 - - 1.0
18/01:30am 1.7 -0.1 1.0 95 0.3 CALM 0 0 0 0 - - 1.0
18/01:00am 2.3 -0.2 1.6 95 0.3 WSW 4 7 2 4 - - 1.0

Other Formats:

Comma delimited format used in spreadsheet applications
http://www.bom.gov.au/fwo/IDT60801/IDT60801.94959.axf

JavaScript Object Notation format (JSON) in row-major order
http://www.bom.gov.au/fwo/IDT60801/IDT60801.94959.json